createdAt,value
2023-11-26T00:02:23.325Z,-0.14
2023-11-26T00:04:53.666Z,-0.18
2023-11-26T00:07:21.766Z,-0.20
2023-11-26T00:09:49.862Z,-0.19
2023-11-26T00:12:18.018Z,-0.21
2023-11-26T00:14:46.300Z,-0.24
2023-11-26T00:17:14.478Z,-0.23
2023-11-26T00:19:42.666Z,-0.27
2023-11-26T00:22:12.159Z,-0.31
2023-11-26T00:24:40.319Z,-0.40
2023-11-26T00:27:08.529Z,-0.42
2023-11-26T00:29:41.916Z,-0.39
2023-11-26T00:32:10.453Z,-0.46
2023-11-26T00:34:39.531Z,-0.45
2023-11-26T00:37:07.707Z,-0.39
2023-11-26T00:39:38.107Z,-0.42
2023-11-26T00:42:06.526Z,-0.44
2023-11-26T00:44:34.701Z,-0.47
2023-11-26T00:47:02.929Z,-0.46
2023-11-26T00:49:31.142Z,-0.53
2023-11-26T00:51:59.722Z,-0.49
2023-11-26T00:54:29.917Z,-0.50
2023-11-26T00:56:59.458Z,-0.52
2023-11-26T00:59:27.800Z,-0.53
2023-11-26T01:01:56.207Z,-0.48
2023-11-26T01:04:25.503Z,-0.46
2023-11-26T01:06:54.980Z,-0.48
2023-11-26T01:09:23.649Z,-0.50
2023-11-26T01:11:51.768Z,-0.53
2023-11-26T01:14:21.361Z,-0.54
2023-11-26T01:16:51.542Z,-0.51
2023-11-26T01:19:21.254Z,-0.52
2023-11-26T01:21:49.428Z,-0.50
2023-11-26T01:24:17.556Z,-0.50
2023-11-26T01:26:45.606Z,-0.48
2023-11-26T01:29:14.014Z,-0.49
2023-11-26T01:31:43.565Z,-0.51
2023-11-26T01:34:11.975Z,-0.48
2023-11-26T01:36:42.186Z,-0.47
2023-11-26T01:39:10.716Z,-0.46
2023-11-26T01:41:38.930Z,-0.47
2023-11-26T01:44:07.844Z,-0.50
2023-11-26T01:46:35.944Z,-0.48
2023-11-26T01:49:05.959Z,-0.51
2023-11-26T01:51:34.022Z,-0.50
2023-11-26T01:54:02.269Z,-0.55
2023-11-26T01:56:30.361Z,-0.59
2023-11-26T01:58:58.523Z,-0.58
2023-11-26T02:01:27.032Z,-0.56
2023-11-26T02:03:56.042Z,-0.60
2023-11-26T02:06:25.629Z,-0.74
2023-11-26T02:08:53.746Z,-0.76
2023-11-26T02:11:21.930Z,-0.71
2023-11-26T02:13:50.791Z,-0.68
2023-11-26T02:16:19.210Z,-0.68
2023-11-26T02:18:48.113Z,-0.68
2023-11-26T02:21:16.525Z,-0.64
2023-11-26T02:23:47.040Z,-0.63
2023-11-26T02:26:17.258Z,-0.75
2023-11-26T02:28:45.673Z,-0.77
2023-11-26T02:31:14.508Z,-0.75
2023-11-26T02:33:54.586Z,-0.77
2023-11-26T02:36:27.409Z,-0.78
2023-11-26T02:38:56.400Z,-0.75
2023-11-26T02:41:27.439Z,-0.75
2023-11-26T02:43:55.650Z,-0.79
2023-11-26T02:46:23.811Z,-0.78
2023-11-26T02:48:52.116Z,-0.74
2023-11-26T02:51:20.489Z,-0.70
2023-11-26T02:53:48.713Z,-0.67
2023-11-26T02:56:18.309Z,-0.67
2023-11-26T02:58:47.869Z,-0.64
2023-11-26T03:01:19.771Z,-0.63
2023-11-26T03:03:49.725Z,-0.63
2023-11-26T03:06:18.760Z,-0.59
2023-11-26T03:08:47.868Z,-0.57
2023-11-26T03:11:33.427Z,-0.56
2023-11-26T03:14:03.401Z,-0.53
2023-11-26T03:16:31.793Z,-0.54
2023-11-26T03:19:01.887Z,-0.54
2023-11-26T03:21:31.443Z,-0.53
2023-11-26T03:23:59.608Z,-0.52
2023-11-26T03:26:28.432Z,-0.50
2023-11-26T03:28:57.214Z,-0.50
2023-11-26T03:31:27.506Z,-0.49
2023-11-26T03:33:55.989Z,-0.51
2023-11-26T03:36:24.369Z,-0.50
2023-11-26T03:38:52.545Z,-0.50
2023-11-26T03:41:21.025Z,-0.52
2023-11-26T03:43:49.205Z,-0.57
2023-11-26T03:46:18.352Z,-0.54
2023-11-26T03:48:50.739Z,-0.55
2023-11-26T03:51:21.914Z,-0.54
2023-11-26T03:53:50.100Z,-0.54
2023-11-26T03:56:18.250Z,-0.52
2023-11-26T03:58:46.412Z,-0.52
2023-11-26T04:01:14.525Z,-0.61
2023-11-26T04:03:43.098Z,-0.66
2023-11-26T04:06:12.683Z,-0.68
2023-11-26T04:08:40.823Z,-0.64
2023-11-26T04:11:09.879Z,-0.64
2023-11-26T04:13:38.511Z,-0.63
2023-11-26T04:16:09.036Z,-0.69
2023-11-26T04:18:37.189Z,-0.75
2023-11-26T04:21:08.650Z,-0.74
2023-11-26T04:23:38.305Z,-0.69
2023-11-26T04:26:07.979Z,-0.67
2023-11-26T04:28:36.298Z,-0.69
2023-11-26T04:31:04.749Z,-0.66
2023-11-26T04:33:33.081Z,-0.69
2023-11-26T04:36:01.185Z,-0.70
2023-11-26T04:38:29.403Z,-0.72
2023-11-26T04:40:58.968Z,-0.80
2023-11-26T04:43:27.468Z,-0.85
2023-11-26T04:45:55.852Z,-0.88
2023-11-26T04:48:23.991Z,-0.82
2023-11-26T04:50:52.462Z,-0.79
2023-11-26T04:53:21.563Z,-0.77
2023-11-26T04:55:50.178Z,-0.77
2023-11-26T04:58:19.650Z,-0.76
2023-11-26T05:00:48.017Z,-0.81
2023-11-26T05:03:16.223Z,-0.83
2023-11-26T05:05:44.511Z,-0.80
2023-11-26T05:08:12.653Z,-0.76
2023-11-26T05:10:40.823Z,-0.74
2023-11-26T05:13:09.257Z,-0.75
2023-11-26T05:15:38.872Z,-0.78
2023-11-26T05:18:07.148Z,-0.76
2023-11-26T05:20:35.349Z,-0.75
2023-11-26T05:23:05.187Z,-0.75
2023-11-26T05:25:34.430Z,-0.76
2023-11-26T05:28:02.815Z,-0.78
2023-11-26T05:30:30.924Z,-0.84
2023-11-26T05:33:00.515Z,-0.84
2023-11-26T05:35:29.481Z,-0.86
2023-11-26T05:37:57.576Z,-0.89
2023-11-26T05:40:26.986Z,-0.94
2023-11-26T05:42:55.299Z,-0.92
2023-11-26T05:45:23.466Z,-0.87
2023-11-26T05:47:51.675Z,-0.87
2023-11-26T05:50:21.257Z,-0.83
2023-11-26T05:52:49.847Z,-0.84
2023-11-26T05:55:21.756Z,-0.81
2023-11-26T05:57:50.213Z,-0.78
2023-11-26T06:00:19.542Z,-0.81
2023-11-26T06:02:47.700Z,-0.82
2023-11-26T06:05:16.062Z,-0.80
2023-11-26T06:07:45.554Z,-0.81
2023-11-26T06:10:13.698Z,-0.78
2023-11-26T06:12:41.801Z,-0.81
2023-11-26T06:15:11.669Z,-0.78
2023-11-26T06:17:39.928Z,-0.78
2023-11-26T06:20:10.600Z,-0.75
2023-11-26T06:22:38.678Z,-0.77
2023-11-26T06:25:10.304Z,-0.74
2023-11-26T06:27:38.634Z,-0.78
2023-11-26T06:30:07.609Z,-0.76
2023-11-26T06:32:36.317Z,-0.82
2023-11-26T06:35:05.124Z,-0.80
2023-11-26T06:37:33.165Z,-0.81
2023-11-26T06:40:01.269Z,-0.81
2023-11-26T06:42:30.821Z,-0.82
2023-11-26T06:44:58.959Z,-0.79
2023-11-26T06:47:29.328Z,-0.75
2023-11-26T06:49:58.633Z,-0.72
2023-11-26T06:52:26.931Z,-0.74
2023-11-26T06:54:55.013Z,-0.76
2023-11-26T06:57:23.141Z,-0.77
2023-11-26T06:59:53.582Z,-0.76
2023-11-26T07:02:21.937Z,-0.72
2023-11-26T07:04:50.142Z,-0.72
2023-11-26T07:07:20.577Z,-0.74
2023-11-26T07:09:48.735Z,-0.69
2023-11-26T07:12:16.865Z,-0.70
2023-11-26T07:14:45.899Z,-0.73
2023-11-26T07:17:15.585Z,-0.70
2023-11-26T07:19:43.690Z,-0.67
2023-11-26T07:22:12.461Z,-0.67
2023-11-26T07:24:43.299Z,-0.64
2023-11-26T07:27:12.226Z,-0.64
2023-11-26T07:29:40.451Z,-0.69
2023-11-26T07:32:08.798Z,-0.67
2023-11-26T07:34:38.254Z,-0.67
2023-11-26T07:37:06.587Z,-0.73
2023-11-26T07:39:34.671Z,-0.67
2023-11-26T07:42:03.024Z,-0.62
2023-11-26T07:44:31.163Z,-0.58
2023-11-26T07:46:59.338Z,-0.60
2023-11-26T07:49:27.508Z,-0.57
2023-11-26T07:51:57.678Z,-0.55
2023-11-26T07:54:26.180Z,-0.50
2023-11-26T07:56:55.532Z,-0.48
2023-11-26T07:59:23.662Z,-0.49
2023-11-26T08:01:52.838Z,-0.51
2023-11-26T08:04:21.127Z,-0.50
2023-11-26T08:06:49.629Z,-0.45
2023-11-26T08:09:19.266Z,-0.39
2023-11-26T08:11:47.991Z,-0.33
2023-11-26T08:14:17.182Z,-0.35
2023-11-26T08:16:47.870Z,-0.32
2023-11-26T08:19:19.421Z,-0.37
2023-11-26T08:21:49.212Z,-0.38
2023-11-26T08:24:20.598Z,-0.21
2023-11-26T08:26:49.277Z,-0.23
2023-11-26T08:29:20.247Z,-0.24
2023-11-26T08:31:49.708Z,-0.22
2023-11-26T08:34:18.755Z,-0.21
2023-11-26T08:36:47.394Z,-0.14
2023-11-26T08:39:27.263Z,-0.10
2023-11-26T08:41:58.034Z,0.03
2023-11-26T08:44:26.208Z,0.14
2023-11-26T08:46:54.417Z,0.13
2023-11-26T08:49:25.071Z,0.03
2023-11-26T08:51:53.402Z,0.03
2023-11-26T08:54:22.565Z,0.06
2023-11-26T08:56:51.482Z,0.02
2023-11-26T08:59:21.075Z,-0.04
2023-11-26T09:01:49.289Z,-0.07
2023-11-26T09:04:17.845Z,-0.02
2023-11-26T09:06:46.136Z,-0.05
2023-11-26T09:09:14.676Z,0.00
2023-11-26T09:11:43.405Z,-0.01
2023-11-26T09:14:11.511Z,0.05
2023-11-26T09:16:41.118Z,0.05
2023-11-26T09:19:10.256Z,0.08
2023-11-26T09:21:38.420Z,0.14
2023-11-26T09:24:07.300Z,0.21
2023-11-26T09:26:35.401Z,0.12
2023-11-26T09:29:04.156Z,0.21
2023-11-26T09:31:33.452Z,0.28
2023-11-26T09:34:03.387Z,0.26
2023-11-26T09:36:31.615Z,0.35
2023-11-26T09:39:00.398Z,0.40
2023-11-26T09:41:28.618Z,0.47
2023-11-26T09:43:56.737Z,0.51
2023-11-26T09:46:24.847Z,0.53
2023-11-26T09:48:53.564Z,0.54
2023-11-26T09:51:24.315Z,0.57
2023-11-26T09:53:53.504Z,0.63
2023-11-26T09:56:21.621Z,0.52
2023-11-26T09:58:49.736Z,0.69
2023-11-26T10:01:17.894Z,0.87
2023-11-26T10:03:59.863Z,0.79
2023-11-26T10:06:29.883Z,0.72
2023-11-26T10:08:59.213Z,0.83
2023-11-26T10:11:28.053Z,0.74
2023-11-26T10:13:56.225Z,0.67
2023-11-26T10:16:33.616Z,0.69
2023-11-26T10:19:02.279Z,0.72
2023-11-26T10:21:32.050Z,0.78
2023-11-26T10:24:01.651Z,0.91
2023-11-26T10:26:30.478Z,0.99
2023-11-26T10:29:09.336Z,1.13
2023-11-26T10:31:37.758Z,1.16
2023-11-26T10:34:10.175Z,1.14
2023-11-26T10:36:39.748Z,1.21
2023-11-26T10:39:10.885Z,1.16
2023-11-26T10:41:39.580Z,1.12
2023-11-26T10:44:08.058Z,1.03
2023-11-26T10:46:36.699Z,1.15
2023-11-26T10:49:08.292Z,1.15
2023-11-26T10:51:36.702Z,1.29
2023-11-26T10:54:07.964Z,1.54
2023-11-26T10:56:38.828Z,1.64
2023-11-26T10:59:09.145Z,1.73
2023-11-26T11:01:37.373Z,1.68
2023-11-26T11:04:06.208Z,1.77
2023-11-26T11:06:34.469Z,1.81
2023-11-26T11:09:03.516Z,1.90
2023-11-26T11:11:44.158Z,2.06
2023-11-26T11:14:12.690Z,2.15
2023-11-26T11:16:40.828Z,2.02
2023-11-26T11:19:09.077Z,1.83
2023-11-26T11:21:48.712Z,1.69
2023-11-26T11:24:20.477Z,1.75
2023-11-26T11:26:50.042Z,1.90
2023-11-26T11:29:32.884Z,1.94
2023-11-26T11:32:02.921Z,1.98
2023-11-26T11:34:31.094Z,2.00
2023-11-26T11:37:00.114Z,2.04
2023-11-26T11:39:44.458Z,2.11
2023-11-26T11:42:22.132Z,2.11
2023-11-26T11:44:50.763Z,2.09
2023-11-26T11:47:40.607Z,2.04
2023-11-26T11:50:09.392Z,1.98
2023-11-26T11:52:39.029Z,1.96
2023-11-26T11:55:34.352Z,1.89
2023-11-26T11:58:11.908Z,1.90
2023-11-26T12:00:40.093Z,1.86
2023-11-26T12:03:08.310Z,1.85
2023-11-26T12:05:36.685Z,1.84
2023-11-26T12:08:05.395Z,1.81
2023-11-26T12:10:33.986Z,1.70
2023-11-26T12:13:07.787Z,1.62
2023-11-26T12:15:36.135Z,1.53
2023-11-26T12:18:04.427Z,1.43
2023-11-26T12:20:32.791Z,1.49
2023-11-26T12:23:01.038Z,1.53
2023-11-26T12:25:29.814Z,1.49
2023-11-26T12:28:06.560Z,1.58
2023-11-26T12:30:35.447Z,1.56
2023-11-26T12:33:04.764Z,1.56
2023-11-26T12:35:36.058Z,1.62
2023-11-26T12:38:05.642Z,1.64
2023-11-26T12:40:34.085Z,1.75
2023-11-26T12:43:02.322Z,1.73
2023-11-26T12:45:31.888Z,1.72
2023-11-26T12:48:00.479Z,1.80
2023-11-26T12:50:43.491Z,1.89
2023-11-26T12:53:14.896Z,1.94
2023-11-26T12:55:47.441Z,2.06
2023-11-26T12:58:22.053Z,2.18
2023-11-26T13:00:52.091Z,2.17
2023-11-26T13:03:21.577Z,2.11
2023-11-26T13:05:49.948Z,2.00
2023-11-26T13:08:23.113Z,1.95
2023-11-26T13:10:55.676Z,1.89
2023-11-26T13:13:27.801Z,1.86
2023-11-26T13:15:58.350Z,1.85
2023-11-26T13:18:27.459Z,1.77
2023-11-26T13:20:58.038Z,1.72
2023-11-26T13:23:26.268Z,1.67
2023-11-26T13:25:56.342Z,1.64
2023-11-26T13:28:25.130Z,1.59
2023-11-26T13:30:53.367Z,1.46
2023-11-26T13:33:23.108Z,1.34
2023-11-26T13:35:51.804Z,1.30
2023-11-26T13:38:21.659Z,1.25
2023-11-26T13:40:51.351Z,1.24
2023-11-26T13:43:22.274Z,1.20
2023-11-26T13:45:50.646Z,1.20
2023-11-26T13:48:23.826Z,1.17
2023-11-26T13:50:53.900Z,1.13
2023-11-26T13:53:24.285Z,1.07
2023-11-26T13:55:54.732Z,1.03
2023-11-26T13:58:22.921Z,0.97
2023-11-26T14:00:51.154Z,0.95
2023-11-26T14:03:20.360Z,0.94
2023-11-26T14:05:48.658Z,0.91
2023-11-26T14:08:18.208Z,0.85
2023-11-26T14:10:46.677Z,0.76
2023-11-26T14:13:19.162Z,0.68
2023-11-26T14:15:48.021Z,0.67
2023-11-26T14:18:16.230Z,0.64
2023-11-26T14:20:44.546Z,0.57
2023-11-26T14:23:12.927Z,0.55
2023-11-26T14:25:42.357Z,0.57
2023-11-26T14:28:10.865Z,0.59
2023-11-26T14:30:39.533Z,0.59
2023-11-26T14:33:07.825Z,0.55
2023-11-26T14:35:36.026Z,0.52
2023-11-26T14:38:04.439Z,0.49
2023-11-26T14:40:32.593Z,0.51
2023-11-26T14:43:02.929Z,0.48
2023-11-26T14:45:31.086Z,0.49
2023-11-26T14:47:59.255Z,0.49
2023-11-26T14:50:28.211Z,0.47
2023-11-26T14:52:56.728Z,0.50
2023-11-26T14:55:25.591Z,0.47
2023-11-26T14:57:53.839Z,0.48
2023-11-26T15:00:26.163Z,0.44
2023-11-26T15:02:54.401Z,0.39
2023-11-26T15:05:22.758Z,0.38
2023-11-26T15:07:51.117Z,0.38
2023-11-26T15:10:19.493Z,0.38
2023-11-26T15:12:47.667Z,0.38
2023-11-26T15:15:16.498Z,0.35
2023-11-26T15:17:46.299Z,0.36
2023-11-26T15:20:16.617Z,0.38
2023-11-26T15:22:44.782Z,0.38
2023-11-26T15:25:14.150Z,0.37
2023-11-26T15:27:43.043Z,0.39
2023-11-26T15:30:12.602Z,0.40
2023-11-26T15:32:41.897Z,0.35
2023-11-26T15:35:13.058Z,0.34
2023-11-26T15:37:41.425Z,0.33
2023-11-26T15:40:13.034Z,0.34
2023-11-26T15:42:41.666Z,0.33
2023-11-26T15:45:13.631Z,0.33
2023-11-26T15:47:42.922Z,0.32
2023-11-26T15:50:12.934Z,0.31
2023-11-26T15:52:41.125Z,0.31
2023-11-26T15:55:10.988Z,0.34
2023-11-26T15:57:39.335Z,0.33
2023-11-26T16:00:09.664Z,0.32
2023-11-26T16:02:44.050Z,0.32
2023-11-26T16:05:15.199Z,0.34
2023-11-26T16:07:43.509Z,0.32
2023-11-26T16:10:11.863Z,0.32
2023-11-26T16:12:40.178Z,0.30
2023-11-26T16:15:11.876Z,0.31
2023-11-26T16:17:43.304Z,0.32
2023-11-26T16:20:14.357Z,0.34
2023-11-26T16:22:42.542Z,0.33
2023-11-26T16:25:15.002Z,0.32
2023-11-26T16:27:43.860Z,0.33
2023-11-26T16:30:15.055Z,0.33
2023-11-26T16:32:43.840Z,0.34
2023-11-26T16:35:11.983Z,0.39
2023-11-26T16:37:41.467Z,0.44
2023-11-26T16:40:10.546Z,0.45
2023-11-26T16:42:38.974Z,0.46
2023-11-26T16:45:10.175Z,0.48
2023-11-26T16:47:39.428Z,0.46
2023-11-26T16:50:08.530Z,0.46
2023-11-26T16:52:36.676Z,0.46
2023-11-26T16:55:09.767Z,0.48
2023-11-26T16:57:38.100Z,0.47
2023-11-26T17:00:07.136Z,0.50
2023-11-26T17:02:35.412Z,0.52
2023-11-26T17:05:05.187Z,0.54
2023-11-26T17:07:33.345Z,0.57
2023-11-26T17:10:01.731Z,0.57
2023-11-26T17:12:37.686Z,0.59
2023-11-26T17:15:07.233Z,0.59
2023-11-26T17:17:35.455Z,0.60
2023-11-26T17:20:04.253Z,0.60
2023-11-26T17:22:32.311Z,0.62
2023-11-26T17:25:00.440Z,0.67
2023-11-26T17:27:28.576Z,0.67
2023-11-26T17:29:58.068Z,0.68
2023-11-26T17:32:26.161Z,0.69
2023-11-26T17:34:55.224Z,0.70
2023-11-26T17:37:24.041Z,0.71
2023-11-26T17:39:52.258Z,0.69
2023-11-26T17:42:20.361Z,0.70
2023-11-26T17:44:48.451Z,0.72
2023-11-26T17:47:18.474Z,0.74
2023-11-26T17:49:47.154Z,0.74
2023-11-26T17:52:15.457Z,0.77
2023-11-26T17:54:43.758Z,0.78
2023-11-26T17:57:13.690Z,0.76
2023-11-26T17:59:41.997Z,0.77
2023-11-26T18:02:10.552Z,0.79
2023-11-26T18:04:41.562Z,0.80
2023-11-26T18:07:09.794Z,0.80
2023-11-26T18:09:37.894Z,0.80
2023-11-26T18:12:06.614Z,0.81
2023-11-26T18:14:35.361Z,0.85
2023-11-26T18:17:04.111Z,0.83
2023-11-26T18:19:32.945Z,0.82
2023-11-26T18:22:02.633Z,0.83
2023-11-26T18:24:30.814Z,0.83
2023-11-26T18:26:59.338Z,0.83
2023-11-26T18:29:27.666Z,0.84
2023-11-26T18:31:58.055Z,0.84
2023-11-26T18:34:27.099Z,0.86
2023-11-26T18:36:55.223Z,0.86
2023-11-26T18:39:24.719Z,0.85
2023-11-26T18:41:52.840Z,0.87
2023-11-26T18:44:21.260Z,0.87
2023-11-26T18:46:49.462Z,0.86
2023-11-26T18:49:17.754Z,0.87
2023-11-26T18:51:47.275Z,0.89
2023-11-26T18:54:15.579Z,0.89
2023-11-26T18:56:45.642Z,0.91
2023-11-26T18:59:18.997Z,0.93
2023-11-26T19:01:47.207Z,0.92
2023-11-26T19:04:15.322Z,0.91
2023-11-26T19:06:43.463Z,0.92
2023-11-26T19:09:11.587Z,0.90
2023-11-26T19:11:40.256Z,0.92
2023-11-26T19:14:09.763Z,0.93
2023-11-26T19:16:38.716Z,0.93
2023-11-26T19:19:06.905Z,0.94
2023-11-26T19:21:35.433Z,0.93
2023-11-26T19:24:03.553Z,0.93
2023-11-26T19:26:31.657Z,0.93
2023-11-26T19:29:00.513Z,0.93
2023-11-26T19:31:30.023Z,0.92
2023-11-26T19:33:58.250Z,0.92
2023-11-26T19:36:27.353Z,0.94
2023-11-26T19:38:55.812Z,0.94
2023-11-26T19:41:24.263Z,0.95
2023-11-26T19:43:52.408Z,0.97
2023-11-26T19:46:20.743Z,1.00
2023-11-26T19:48:50.856Z,0.98
2023-11-26T19:51:21.454Z,0.95
2023-11-26T19:53:50.587Z,0.95
2023-11-26T19:56:19.255Z,0.95
2023-11-26T19:58:47.735Z,0.93
2023-11-26T20:01:16.214Z,0.94
2023-11-26T20:03:44.568Z,0.98
2023-11-26T20:06:14.449Z,0.97
2023-11-26T20:08:44.255Z,0.97
2023-11-26T20:11:12.526Z,0.97
2023-11-26T20:13:40.631Z,0.96
2023-11-26T20:16:10.074Z,0.95
2023-11-26T20:18:38.314Z,0.97
2023-11-26T20:21:09.162Z,0.97
2023-11-26T20:23:38.668Z,0.98
2023-11-26T20:26:07.132Z,0.97
2023-11-26T20:28:35.241Z,0.97
2023-11-26T20:31:08.493Z,0.97
2023-11-26T20:33:38.540Z,0.98
2023-11-26T20:36:08.130Z,1.00
2023-11-26T20:38:37.529Z,0.97
2023-11-26T20:41:07.280Z,0.97
2023-11-26T20:43:35.351Z,0.98
2023-11-26T20:46:03.505Z,1.00
2023-11-26T20:48:32.105Z,1.00
2023-11-26T20:51:00.186Z,1.00
2023-11-26T20:53:28.216Z,1.00
2023-11-26T20:55:56.294Z,0.98
2023-11-26T20:58:28.576Z,0.97
2023-11-26T21:00:57.179Z,0.97
2023-11-26T21:03:25.375Z,0.99
2023-11-26T21:05:54.033Z,0.99
2023-11-26T21:08:22.093Z,0.99
2023-11-26T21:10:50.151Z,0.98
2023-11-26T21:13:18.630Z,0.99
2023-11-26T21:15:48.214Z,0.99
2023-11-26T21:18:17.423Z,1.00
2023-11-26T21:20:45.723Z,1.02
2023-11-26T21:23:13.890Z,1.01
2023-11-26T21:25:42.386Z,0.99
2023-11-26T21:28:10.905Z,0.98
2023-11-26T21:30:39.078Z,0.97
2023-11-26T21:33:08.555Z,0.98
2023-11-26T21:35:36.725Z,0.98
2023-11-26T21:38:04.907Z,1.00
2023-11-26T21:40:33.221Z,0.99
2023-11-26T21:43:01.952Z,0.98
2023-11-26T21:45:30.083Z,0.99
2023-11-26T21:47:58.204Z,0.97
2023-11-26T21:50:31.083Z,0.98
2023-11-26T21:52:59.519Z,0.98
2023-11-26T21:55:27.609Z,0.99
2023-11-26T21:57:55.700Z,0.99
2023-11-26T22:00:23.755Z,0.98
2023-11-26T22:02:51.935Z,0.99
2023-11-26T22:05:20.070Z,0.96
2023-11-26T22:07:49.807Z,0.95
2023-11-26T22:10:18.047Z,0.95
2023-11-26T22:12:46.849Z,0.95
2023-11-26T22:15:14.928Z,0.96
2023-11-26T22:17:43.129Z,0.95
2023-11-26T22:20:12.922Z,0.96
2023-11-26T22:22:43.474Z,0.95
2023-11-26T22:25:13.758Z,0.97
2023-11-26T22:27:41.985Z,0.97
2023-11-26T22:30:12.949Z,0.99
2023-11-26T22:32:41.390Z,0.97
2023-11-26T22:35:10.774Z,0.97
2023-11-26T22:37:39.493Z,1.00
2023-11-26T22:40:08.744Z,1.03
2023-11-26T22:42:38.559Z,1.01
2023-11-26T22:45:08.004Z,1.04
2023-11-26T22:47:36.337Z,1.04
2023-11-26T22:50:04.846Z,1.05
2023-11-26T22:52:33.266Z,1.05
2023-11-26T22:55:01.361Z,1.03
2023-11-26T22:57:29.659Z,1.04
2023-11-26T22:59:59.250Z,1.05
2023-11-26T23:02:27.731Z,1.00
2023-11-26T23:04:55.953Z,1.00
2023-11-26T23:07:24.038Z,0.99
2023-11-26T23:09:52.222Z,1.01
2023-11-26T23:12:20.308Z,1.03
2023-11-26T23:14:48.777Z,1.02
2023-11-26T23:17:18.291Z,1.01
2023-11-26T23:19:46.403Z,1.00
2023-11-26T23:22:14.674Z,1.01
2023-11-26T23:24:42.888Z,1.05
2023-11-26T23:27:11.285Z,1.03
2023-11-26T23:29:39.391Z,1.03
2023-11-26T23:32:08.288Z,1.05
2023-11-26T23:34:37.784Z,1.04
2023-11-26T23:37:06.088Z,1.03
2023-11-26T23:39:34.923Z,1.02
2023-11-26T23:42:04.099Z,1.03
2023-11-26T23:44:32.326Z,1.06
2023-11-26T23:47:00.590Z,1.05
2023-11-26T23:49:28.790Z,1.06
2023-11-26T23:51:59.147Z,1.06
2023-11-26T23:54:27.319Z,1.06
2023-11-26T23:56:55.895Z,1.04
2023-11-26T23:59:24.008Z,1.03
